Meteo Giornale » Osservazioni meteo Italia » Gioia Del Colle

ore: 21:55 - Osservazioni Meteo Gioia Del Colle
Lat. 40° 46' N Lon. 16° 56' E Alt. 345 metri s.l.m.

sereno Europe/Rome

11 °C

Sereno

Temp. 24 Ore

6 °C

20 °C

Nord

1.8 Km/h

Dew point 10 °C

Umidità 93 %

Visibilità  10 Km

Il sole sorge alle ore 07:10

Il sole tramonta alle ore 18:03

Data e Ora Cielo e Fenomeni T °C DP °C Um. % Pres. hPa Vis. km Vento km/h
Oggi h: 21:55 sereno Sereno 11 10 93 1023 10 N 1.8
Oggi h: 20:55 sereno Sereno 12 10 87 1023 10 N 3.7
Oggi h: 18:55 sereno Sereno 16 11 72 1023 10 N 3.7
Oggi h: 17:55 sereno Sereno 19 10 55 1022 10 N/NE 7.4
Oggi h: 16:55 sereno Sereno 19 8 48 1022 10 N/NE 11.1
Oggi h: 15:55 sereno Sereno 20 7 42 1023 10 N/NE 9.3
Oggi h: 14:55 sereno Sereno 20 6 39 1023 10 NE 11.1
Oggi h: 13:55 sereno Sereno 20 6 39 1023 10 N 9.3
Oggi h: 12:55 sereno Sereno 19 5 39 1024 10 N/NE 9.3
Oggi h: 11:55 sereno Sereno 19 3 34 1024 10 N 5.5
Oggi h: 10:55 sereno Sereno 18 5 42 1024 10 N 5.5
Oggi h: 09:55 sereno Sereno 15 9 67 1024 10 N 5.5
Oggi h: 08:55 sereno Sereno 9 9 100 1024 10 N 1.8
Oggi h: 07:55 sereno Sereno 6 6 100 1024 10 N 0
Oggi h: 06:55 sereno Sereno 6 6 100 1023 8 N 0
Oggi h: 03:55 sereno Sereno 7 6 93 1024 8 N 0
Oggi h: 02:55 sereno Sereno 8 7 93 1024 8 N 0
Oggi h: 01:55 sereno Sereno 9 9 100 1024 8 N 0
Oggi h: 00:55 sereno Sereno 9 9 100 1024 8 N 0
Ieri h: 23:55 sereno Sereno 10 10 100 1024 8 N 5.5
Ieri h: 22:55 sereno Sereno 10 10 100 1023 8 N 0